createdAt,value
2017-12-24T00:02:00.471Z,8.30
2017-12-24T00:04:28.016Z,8.30
2017-12-24T00:06:55.523Z,8.30
2017-12-24T00:09:23.049Z,8.30
2017-12-24T00:11:50.564Z,8.30
2017-12-24T00:14:18.059Z,8.30
2017-12-24T00:16:45.595Z,8.30
2017-12-24T00:19:13.101Z,8.30
2017-12-24T00:21:40.620Z,8.30
2017-12-24T00:24:08.120Z,8.30
2017-12-24T00:26:35.639Z,8.30
2017-12-24T00:29:03.144Z,8.30
2017-12-24T00:31:30.644Z,8.30
2017-12-24T00:33:58.181Z,8.30
2017-12-24T00:36:26.451Z,8.30
2017-12-24T00:38:54.735Z,8.30
2017-12-24T00:41:23.004Z,8.30
2017-12-24T00:43:51.349Z,8.30
2017-12-24T00:46:18.813Z,8.30
2017-12-24T00:48:46.344Z,8.30
2017-12-24T00:51:13.843Z,8.30
2017-12-24T00:53:41.371Z,8.30
2017-12-24T00:56:08.875Z,8.30
2017-12-24T00:58:37.144Z,8.30
2017-12-24T01:01:05.439Z,8.30
2017-12-24T01:03:33.707Z,8.30
2017-12-24T01:06:01.995Z,8.30
2017-12-24T01:08:29.499Z,8.20
2017-12-24T01:10:57.025Z,8.30
2017-12-24T01:13:24.529Z,8.30
2017-12-24T01:15:52.032Z,8.30
2017-12-24T01:18:19.599Z,8.30
2017-12-24T01:20:47.068Z,8.30
2017-12-24T01:23:14.586Z,8.30
2017-12-24T01:25:42.094Z,8.30
2017-12-24T01:28:09.617Z,8.20
2017-12-24T01:30:37.968Z,8.20
2017-12-24T01:33:05.472Z,8.20
2017-12-24T01:35:32.991Z,8.20
2017-12-24T01:38:01.265Z,8.20
2017-12-24T01:40:28.791Z,8.20
2017-12-24T01:42:56.288Z,8.20
2017-12-24T01:45:24.580Z,8.20
2017-12-24T01:47:52.091Z,8.20
2017-12-24T01:50:19.612Z,8.20
2017-12-24T01:52:47.124Z,8.20
2017-12-24T01:55:14.629Z,8.20
2017-12-24T01:57:42.160Z,8.20
2017-12-24T02:00:10.433Z,8.20
2017-12-24T02:02:38.719Z,8.10
2017-12-24T02:05:06.219Z,8.10
2017-12-24T02:07:33.740Z,8.10
2017-12-24T02:10:01.240Z,8.10
2017-12-24T02:12:28.768Z,8.20
2017-12-24T02:14:56.271Z,8.20
2017-12-24T02:17:23.800Z,8.20
2017-12-24T02:19:51.305Z,8.20
2017-12-24T02:22:18.826Z,8.20
2017-12-24T02:24:46.352Z,8.20
2017-12-24T02:27:14.615Z,8.20
2017-12-24T02:29:42.144Z,8.20
2017-12-24T02:32:09.656Z,8.20
2017-12-24T02:34:37.187Z,8.20
2017-12-24T02:37:04.692Z,8.20
2017-12-24T02:39:32.238Z,8.20
2017-12-24T02:41:59.751Z,8.20
2017-12-24T02:44:27.280Z,8.20
2017-12-24T02:46:54.802Z,8.20
2017-12-24T02:49:22.307Z,8.20
2017-12-24T02:51:49.836Z,8.20
2017-12-24T02:54:17.343Z,8.20
2017-12-24T02:56:44.868Z,8.10
2017-12-24T02:59:12.863Z,8.10
2017-12-24T03:01:40.391Z,8.10
2017-12-24T03:04:07.891Z,8.10
2017-12-24T03:06:35.454Z,8.10
2017-12-24T03:09:02.979Z,8.10
2017-12-24T03:11:31.247Z,8.10
2017-12-24T03:13:58.771Z,8.10
2017-12-24T03:16:27.031Z,8.10
2017-12-24T03:18:54.555Z,8.10
2017-12-24T03:21:22.064Z,8.10
2017-12-24T03:23:49.583Z,8.10
2017-12-24T03:26:17.096Z,8.00
2017-12-24T03:28:44.595Z,8.00
2017-12-24T03:31:12.117Z,8.00
2017-12-24T03:33:39.630Z,8.00
2017-12-24T03:36:07.155Z,8.00
2017-12-24T03:38:34.660Z,8.00
2017-12-24T03:41:02.180Z,8.00
2017-12-24T03:43:29.688Z,8.00
2017-12-24T03:45:57.975Z,8.00
2017-12-24T03:48:25.479Z,8.00
2017-12-24T03:50:52.987Z,7.90
2017-12-24T03:53:20.520Z,8.00
2017-12-24T03:55:48.024Z,8.00
2017-12-24T03:58:15.552Z,7.90
2017-12-24T04:00:43.056Z,8.00
2017-12-24T04:03:10.580Z,8.00
2017-12-24T04:05:38.081Z,8.00
2017-12-24T04:08:05.613Z,8.00
2017-12-24T04:10:33.118Z,7.90
2017-12-24T04:13:00.640Z,7.90
2017-12-24T04:15:28.138Z,7.90
2017-12-24T04:17:55.640Z,7.90
2017-12-24T04:20:23.159Z,7.90
2017-12-24T04:22:50.660Z,7.90
2017-12-24T04:25:18.188Z,7.90
2017-12-24T04:27:45.689Z,7.90
2017-12-24T04:30:13.207Z,7.80
2017-12-24T04:32:41.479Z,7.90
2017-12-24T04:35:09.767Z,7.90
2017-12-24T04:37:37.271Z,7.90
2017-12-24T04:40:04.796Z,7.90
2017-12-24T04:42:32.305Z,7.90
2017-12-24T04:44:59.810Z,7.90
2017-12-24T04:47:27.336Z,7.90
2017-12-24T04:49:54.849Z,7.90
2017-12-24T04:52:22.373Z,7.80
2017-12-24T04:54:50.639Z,7.90
2017-12-24T04:57:18.162Z,7.90
2017-12-24T04:59:46.431Z,7.90
2017-12-24T05:02:13.951Z,7.90
2017-12-24T05:04:42.223Z,7.80
2017-12-24T05:07:10.517Z,7.90
2017-12-24T05:09:38.020Z,7.90
2017-12-24T05:12:05.524Z,7.90
2017-12-24T05:14:33.047Z,7.90
2017-12-24T05:17:00.557Z,7.90
2017-12-24T05:19:28.080Z,7.90
2017-12-24T05:21:55.580Z,7.90
2017-12-24T05:24:23.104Z,7.90
2017-12-24T05:26:51.375Z,7.90
2017-12-24T05:29:19.668Z,7.90
2017-12-24T05:31:47.172Z,7.90
2017-12-24T05:34:14.695Z,7.90
2017-12-24T05:36:42.200Z,7.90
2017-12-24T05:39:09.719Z,7.90
2017-12-24T05:41:37.228Z,7.90
2017-12-24T05:44:04.724Z,7.90
2017-12-24T05:46:32.247Z,7.90
2017-12-24T05:48:59.747Z,7.90
2017-12-24T05:51:27.272Z,7.90
2017-12-24T05:53:54.775Z,7.90
2017-12-24T05:56:22.296Z,7.90
2017-12-24T05:58:50.571Z,7.90
2017-12-24T06:01:18.103Z,7.90
2017-12-24T06:03:45.615Z,7.90
2017-12-24T06:06:13.140Z,7.90
2017-12-24T06:08:40.648Z,7.90
2017-12-24T06:11:08.175Z,7.90
2017-12-24T06:13:36.485Z,7.90
2017-12-24T06:16:03.987Z,7.90
2017-12-24T06:18:31.481Z,7.90
2017-12-24T06:20:58.987Z,7.80
2017-12-24T06:23:26.513Z,7.90
2017-12-24T06:25:54.011Z,7.90
2017-12-24T06:28:21.532Z,7.80
2017-12-24T06:30:49.029Z,7.90
2017-12-24T06:33:16.561Z,7.80
2017-12-24T06:35:44.057Z,7.80
2017-12-24T06:38:11.582Z,7.80
2017-12-24T06:40:39.083Z,7.80
2017-12-24T06:43:07.375Z,7.80
2017-12-24T06:45:35.644Z,7.80
2017-12-24T06:48:03.148Z,7.80
2017-12-24T06:50:30.668Z,7.80
2017-12-24T06:52:58.171Z,7.80
2017-12-24T06:55:25.687Z,7.80
2017-12-24T06:57:53.185Z,7.80
2017-12-24T07:00:20.704Z,7.70
2017-12-24T07:02:48.203Z,7.70
2017-12-24T07:05:15.728Z,7.70
2017-12-24T07:07:43.227Z,7.70
2017-12-24T07:10:10.763Z,7.70
2017-12-24T07:12:38.261Z,7.70
2017-12-24T07:15:05.761Z,7.60
2017-12-24T07:17:33.288Z,7.60
2017-12-24T07:20:00.796Z,7.60
2017-12-24T07:22:28.322Z,7.60
2017-12-24T07:24:55.832Z,7.60
2017-12-24T07:27:23.355Z,7.60
2017-12-24T07:29:50.852Z,7.60
2017-12-24T07:32:18.384Z,7.60
2017-12-24T07:34:45.887Z,7.50
2017-12-24T07:37:13.407Z,7.50
2017-12-24T07:39:40.903Z,7.60
2017-12-24T07:42:08.439Z,7.50
2017-12-24T07:44:35.947Z,7.50
2017-12-24T07:47:03.463Z,7.50
2017-12-24T07:49:30.959Z,7.50
2017-12-24T07:51:58.487Z,7.60
2017-12-24T07:54:25.988Z,7.60
2017-12-24T07:56:53.519Z,7.60
2017-12-24T07:59:21.021Z,7.60
2017-12-24T08:01:48.546Z,7.60
2017-12-24T08:04:16.047Z,7.60
2017-12-24T08:06:43.556Z,7.50
2017-12-24T08:09:11.075Z,7.50
2017-12-24T08:11:38.603Z,7.50
2017-12-24T08:14:06.124Z,7.50
2017-12-24T08:16:33.623Z,7.50
2017-12-24T08:19:01.149Z,7.50
2017-12-24T08:21:28.658Z,7.50
2017-12-24T08:23:56.184Z,7.50
2017-12-24T08:26:23.684Z,7.50
2017-12-24T08:28:51.203Z,7.50
2017-12-24T08:31:19.518Z,7.50
2017-12-24T08:33:46.996Z,7.50
2017-12-24T08:36:14.520Z,7.50
2017-12-24T08:38:42.024Z,7.50
2017-12-24T08:41:09.543Z,7.50
2017-12-24T08:43:37.044Z,7.60
2017-12-24T08:46:04.569Z,7.50
2017-12-24T08:48:32.072Z,7.50
2017-12-24T08:50:59.576Z,7.50
2017-12-24T08:53:27.095Z,7.50
2017-12-24T08:55:55.363Z,7.50
2017-12-24T08:58:22.891Z,7.50
2017-12-24T09:00:50.398Z,7.50
2017-12-24T09:03:18.678Z,7.50
2017-12-24T09:05:46.952Z,7.50
2017-12-24T09:08:15.236Z,7.60
2017-12-24T09:10:42.756Z,7.50
2017-12-24T09:13:10.251Z,7.60
2017-12-24T09:15:37.779Z,7.60
2017-12-24T09:18:05.284Z,7.60
2017-12-24T09:20:32.784Z,7.60
2017-12-24T09:23:00.303Z,7.60
2017-12-24T09:25:27.817Z,7.60
2017-12-24T09:27:55.349Z,7.60
2017-12-24T09:30:22.848Z,7.60
2017-12-24T09:32:50.351Z,7.60
2017-12-24T09:35:17.867Z,7.60
2017-12-24T09:37:46.134Z,7.60
2017-12-24T09:40:13.660Z,7.60
2017-12-24T09:42:41.159Z,7.60
2017-12-24T09:45:08.683Z,7.60
2017-12-24T09:47:36.188Z,7.60
2017-12-24T09:50:03.743Z,7.60
2017-12-24T09:52:31.268Z,7.70
2017-12-24T09:54:58.772Z,7.60
2017-12-24T09:57:26.295Z,7.70
2017-12-24T09:59:53.795Z,7.70
2017-12-24T10:02:21.324Z,7.60
2017-12-24T10:04:49.611Z,7.60
2017-12-24T10:07:17.874Z,7.60
2017-12-24T10:09:46.174Z,7.60
2017-12-24T10:12:13.671Z,7.70
2017-12-24T10:14:41.191Z,7.70
2017-12-24T10:17:08.688Z,7.70
2017-12-24T10:19:36.212Z,7.70
2017-12-24T10:22:03.721Z,7.70
2017-12-24T10:24:31.224Z,7.70
2017-12-24T10:26:58.766Z,7.70
2017-12-24T10:29:27.032Z,7.60
2017-12-24T10:31:54.563Z,7.60
2017-12-24T10:34:22.063Z,7.60
2017-12-24T10:36:49.592Z,7.60
2017-12-24T10:39:17.114Z,7.60
2017-12-24T10:41:44.632Z,7.60
2017-12-24T10:44:12.904Z,7.60
2017-12-24T10:46:41.172Z,7.60
2017-12-24T10:49:08.698Z,7.60
2017-12-24T10:51:36.200Z,7.60
2017-12-24T10:54:04.493Z,7.60
2017-12-24T10:56:31.994Z,7.60
2017-12-24T10:58:59.517Z,7.60
2017-12-24T11:01:27.024Z,7.60
2017-12-24T11:03:54.543Z,7.60
2017-12-24T11:06:22.052Z,7.60
2017-12-24T11:08:49.576Z,7.60
2017-12-24T11:11:17.076Z,7.60
2017-12-24T11:13:44.581Z,7.60
2017-12-24T11:16:12.103Z,7.60
2017-12-24T11:18:40.369Z,7.60
2017-12-24T11:21:07.887Z,7.60
2017-12-24T11:23:35.389Z,7.60
2017-12-24T11:26:02.914Z,7.60
2017-12-24T11:28:30.416Z,7.60
2017-12-24T11:30:58.700Z,7.50
2017-12-24T11:33:26.203Z,7.50
2017-12-24T11:35:53.703Z,7.50
2017-12-24T11:38:21.224Z,7.40
2017-12-24T11:40:48.723Z,7.40
2017-12-24T11:43:16.247Z,7.40
2017-12-24T11:45:43.739Z,7.40
2017-12-24T11:48:11.260Z,7.40
2017-12-24T11:50:38.755Z,7.50
2017-12-24T11:53:07.040Z,7.50
2017-12-24T11:55:34.545Z,7.50
2017-12-24T11:58:02.068Z,7.50
2017-12-24T12:00:29.573Z,7.50
2017-12-24T12:02:57.083Z,7.50
2017-12-24T12:05:24.604Z,7.50
2017-12-24T12:07:52.103Z,7.40
2017-12-24T12:10:19.627Z,7.50
2017-12-24T12:12:47.128Z,7.50
2017-12-24T12:15:14.652Z,7.50
2017-12-24T12:17:42.927Z,7.50
2017-12-24T12:20:11.222Z,7.50
2017-12-24T12:22:39.506Z,7.50
2017-12-24T12:25:07.035Z,7.50
2017-12-24T12:27:34.540Z,7.50
2017-12-24T12:30:02.040Z,7.50
2017-12-24T12:32:29.570Z,7.40
2017-12-24T12:34:57.080Z,7.40
2017-12-24T12:37:25.368Z,7.50
2017-12-24T12:39:52.875Z,7.50
2017-12-24T12:42:20.391Z,7.50
2017-12-24T12:44:47.886Z,7.50
2017-12-24T12:47:15.399Z,7.50
2017-12-24T12:49:42.899Z,7.50
2017-12-24T12:52:10.424Z,7.50
2017-12-24T12:54:37.923Z,7.50
2017-12-24T12:57:05.422Z,7.50
2017-12-24T12:59:34.277Z,7.60
2017-12-24T13:02:01.804Z,7.60
2017-12-24T13:04:29.335Z,7.50
2017-12-24T13:06:57.595Z,7.60
2017-12-24T13:09:25.124Z,7.60
2017-12-24T13:11:52.633Z,7.50
2017-12-24T13:14:20.925Z,7.50
2017-12-24T13:16:48.424Z,7.50
2017-12-24T13:19:15.920Z,7.50
2017-12-24T13:21:44.207Z,7.40
2017-12-24T13:24:11.708Z,7.40
2017-12-24T13:26:39.231Z,7.50
2017-12-24T13:29:06.727Z,7.40
2017-12-24T13:31:34.255Z,7.40
2017-12-24T13:34:01.770Z,7.40
2017-12-24T13:36:30.056Z,7.40
2017-12-24T13:38:57.592Z,7.40
2017-12-24T13:41:25.100Z,7.40
2017-12-24T13:43:52.684Z,7.40
2017-12-24T13:46:20.184Z,7.40
2017-12-24T13:48:47.712Z,7.40
2017-12-24T13:51:15.216Z,7.40
2017-12-24T13:53:43.508Z,7.40
2017-12-24T13:56:11.012Z,7.40
2017-12-24T13:58:38.515Z,7.40
2017-12-24T14:01:06.803Z,7.40
2017-12-24T14:03:34.307Z,7.30
2017-12-24T14:06:01.828Z,7.40
2017-12-24T14:08:29.323Z,7.40
2017-12-24T14:10:56.849Z,7.40
2017-12-24T14:13:24.348Z,7.40
2017-12-24T14:15:51.930Z,7.40
2017-12-24T14:18:19.399Z,7.40
2017-12-24T14:20:46.908Z,7.40
2017-12-24T14:23:14.431Z,7.40
2017-12-24T14:25:41.931Z,7.30
2017-12-24T14:28:09.465Z,7.40
2017-12-24T14:30:36.976Z,7.30
2017-12-24T14:33:05.272Z,7.30
2017-12-24T14:35:32.781Z,7.30
2017-12-24T14:38:00.316Z,7.30
2017-12-24T14:40:27.818Z,7.30
2017-12-24T14:42:55.324Z,7.30
2017-12-24T14:45:22.847Z,7.30
2017-12-24T14:47:51.123Z,7.30
2017-12-24T14:50:18.647Z,7.30
2017-12-24T14:52:46.151Z,7.20
2017-12-24T14:55:14.444Z,7.30
2017-12-24T14:57:41.960Z,7.30
2017-12-24T15:00:09.488Z,7.30
2017-12-24T15:02:36.996Z,7.30
2017-12-24T15:05:05.264Z,7.20
2017-12-24T15:07:32.784Z,7.20
2017-12-24T15:10:00.284Z,7.20
2017-12-24T15:12:27.824Z,7.20
2017-12-24T15:14:55.329Z,7.20
2017-12-24T15:17:22.855Z,7.20
2017-12-24T15:19:50.359Z,7.20
2017-12-24T15:22:17.886Z,7.20
2017-12-24T15:24:45.400Z,7.20
2017-12-24T15:27:12.924Z,7.20
2017-12-24T15:29:40.431Z,7.20
2017-12-24T15:32:07.944Z,7.10
2017-12-24T15:34:35.463Z,7.20
2017-12-24T15:37:02.967Z,7.10
2017-12-24T15:39:30.487Z,7.10
2017-12-24T15:41:58.756Z,7.20
2017-12-24T15:44:26.283Z,7.20
2017-12-24T15:46:53.791Z,7.10
2017-12-24T15:49:21.316Z,7.10
2017-12-24T15:51:48.820Z,7.10
2017-12-24T15:54:16.337Z,7.10
2017-12-24T15:56:43.863Z,7.10
2017-12-24T15:59:11.379Z,7.10
2017-12-24T16:01:38.899Z,7.10
2017-12-24T16:04:06.412Z,7.00
2017-12-24T16:06:33.935Z,7.00
2017-12-24T16:09:01.436Z,7.00
2017-12-24T16:11:28.968Z,7.00
2017-12-24T16:13:57.249Z,7.00
2017-12-24T16:16:25.523Z,7.00
2017-12-24T16:18:53.812Z,7.00
2017-12-24T16:21:21.324Z,7.00
2017-12-24T16:23:48.844Z,7.00
2017-12-24T16:26:16.347Z,7.10
2017-12-24T16:28:43.886Z,7.00
2017-12-24T16:31:11.396Z,7.00
2017-12-24T16:33:38.933Z,7.00
2017-12-24T16:36:06.441Z,7.00
2017-12-24T16:38:33.967Z,7.00
2017-12-24T16:41:02.240Z,7.00
2017-12-24T16:43:30.516Z,7.00
2017-12-24T16:45:58.808Z,7.00
2017-12-24T16:48:26.311Z,7.00
2017-12-24T16:50:54.620Z,7.00
2017-12-24T16:53:22.128Z,7.00
2017-12-24T16:55:49.651Z,7.00
2017-12-24T16:58:17.151Z,7.00
2017-12-24T17:00:44.681Z,7.00
2017-12-24T17:03:12.185Z,7.00
2017-12-24T17:05:39.716Z,7.00
2017-12-24T17:08:07.221Z,7.00
2017-12-24T17:10:34.733Z,7.00
2017-12-24T17:13:02.259Z,7.00
2017-12-24T17:15:30.543Z,7.00
2017-12-24T17:17:58.835Z,7.00
2017-12-24T17:20:26.340Z,6.90
2017-12-24T17:22:53.871Z,7.00
2017-12-24T17:25:21.380Z,6.90
2017-12-24T17:27:48.885Z,6.90
2017-12-24T17:30:16.417Z,7.00
2017-12-24T17:32:44.688Z,6.90
2017-12-24T17:35:12.975Z,6.90
2017-12-24T17:37:40.481Z,6.90
2017-12-24T17:40:08.024Z,6.90
2017-12-24T17:42:35.536Z,6.90
2017-12-24T17:45:03.060Z,6.90
2017-12-24T17:47:30.567Z,6.90
2017-12-24T17:49:58.091Z,6.90
2017-12-24T17:52:25.601Z,6.90
2017-12-24T17:54:53.108Z,6.90
2017-12-24T17:57:20.631Z,6.90
2017-12-24T17:59:48.144Z,6.90
2017-12-24T18:02:15.674Z,6.90
2017-12-24T18:04:43.173Z,6.90
2017-12-24T18:07:10.704Z,6.90
2017-12-24T18:09:38.219Z,6.90
2017-12-24T18:12:05.745Z,6.90
2017-12-24T18:14:34.019Z,6.90
2017-12-24T18:17:01.540Z,6.80
2017-12-24T18:19:29.072Z,6.90
2017-12-24T18:21:56.585Z,6.90
2017-12-24T18:24:24.112Z,6.90
2017-12-24T18:26:51.615Z,6.90
2017-12-24T18:29:19.908Z,6.80
2017-12-24T18:31:47.419Z,6.80
2017-12-24T18:34:14.949Z,6.80
2017-12-24T18:36:42.447Z,6.80
2017-12-24T18:39:09.962Z,6.80
2017-12-24T18:41:37.504Z,6.80
2017-12-24T18:44:05.000Z,6.80
2017-12-24T18:46:32.554Z,6.80
2017-12-24T18:49:00.059Z,6.70
2017-12-24T18:51:28.349Z,6.70
2017-12-24T18:53:55.857Z,6.70
2017-12-24T18:56:23.395Z,6.70
2017-12-24T18:58:50.895Z,6.60
2017-12-24T19:01:18.424Z,6.60
2017-12-24T19:03:45.945Z,6.60
2017-12-24T19:06:13.452Z,6.60
2017-12-24T19:08:40.979Z,6.60
2017-12-24T19:11:08.483Z,6.60
2017-12-24T19:13:36.014Z,6.60
2017-12-24T19:16:03.529Z,6.60
2017-12-24T19:18:31.056Z,6.50
2017-12-24T19:20:58.557Z,6.50
2017-12-24T19:23:26.089Z,6.50
2017-12-24T19:25:53.591Z,6.60
2017-12-24T19:28:21.097Z,6.60
2017-12-24T19:30:48.619Z,6.60
2017-12-24T19:33:16.124Z,6.50
2017-12-24T19:35:44.414Z,6.60
2017-12-24T19:38:11.916Z,6.60
2017-12-24T19:40:39.439Z,6.60
2017-12-24T19:43:06.940Z,6.60
2017-12-24T19:45:34.466Z,6.60
2017-12-24T19:48:01.981Z,6.60
2017-12-24T19:50:29.490Z,6.60
2017-12-24T19:52:57.016Z,6.60
2017-12-24T19:55:25.280Z,6.70
2017-12-24T19:57:53.571Z,6.70
2017-12-24T20:00:21.074Z,6.70
2017-12-24T20:02:48.597Z,6.70
2017-12-24T20:05:16.105Z,6.70
2017-12-24T20:07:43.628Z,6.70
2017-12-24T20:10:11.138Z,6.70
2017-12-24T20:12:38.659Z,6.70
2017-12-24T20:15:06.945Z,6.70
2017-12-24T20:17:34.453Z,6.70
2017-12-24T20:20:02.752Z,6.80
2017-12-24T20:22:30.259Z,6.70
2017-12-24T20:24:57.797Z,6.80
2017-12-24T20:27:25.332Z,6.70
2017-12-24T20:29:52.859Z,6.80
2017-12-24T20:32:21.132Z,6.70
2017-12-24T20:34:48.661Z,6.70
2017-12-24T20:37:16.163Z,6.70
2017-12-24T20:39:43.676Z,6.70
2017-12-24T20:42:11.195Z,6.80
2017-12-24T20:44:38.708Z,6.80
2017-12-24T20:47:06.233Z,6.80
2017-12-24T20:49:33.739Z,6.80
2017-12-24T20:52:02.042Z,6.80
2017-12-24T20:54:29.549Z,6.80
2017-12-24T20:56:57.070Z,6.90
2017-12-24T20:59:24.577Z,6.90
2017-12-24T21:01:52.109Z,6.80
2017-12-24T21:04:20.399Z,6.90
2017-12-24T21:06:47.899Z,6.90
2017-12-24T21:09:15.423Z,6.90
2017-12-24T21:11:42.924Z,6.90
2017-12-24T21:14:10.447Z,6.90
2017-12-24T21:16:37.960Z,6.90
2017-12-24T21:19:05.483Z,6.90
2017-12-24T21:21:33.748Z,6.90
2017-12-24T21:24:01.258Z,6.90
2017-12-24T21:26:28.788Z,6.90
2017-12-24T21:28:56.308Z,6.90
2017-12-24T21:31:23.838Z,6.90
2017-12-24T21:33:51.339Z,6.90
2017-12-24T21:36:18.864Z,6.90
2017-12-24T21:38:47.143Z,6.90
2017-12-24T21:41:14.676Z,6.90
2017-12-24T21:43:42.182Z,6.90
2017-12-24T21:46:09.690Z,6.90
2017-12-24T21:48:37.207Z,6.80
2017-12-24T21:51:04.711Z,6.80
2017-12-24T21:53:33.012Z,6.80
2017-12-24T21:56:00.523Z,6.80
2017-12-24T21:58:28.055Z,6.80
2017-12-24T22:00:55.560Z,6.80
2017-12-24T22:03:23.068Z,6.80
2017-12-24T22:05:50.591Z,6.80
2017-12-24T22:08:18.112Z,6.80
2017-12-24T22:10:46.411Z,6.80
2017-12-24T22:13:13.919Z,6.80
2017-12-24T22:15:41.452Z,6.80
2017-12-24T22:18:08.967Z,6.80
2017-12-24T22:20:37.264Z,6.80
2017-12-24T22:23:04.768Z,6.80
2017-12-24T22:25:32.272Z,6.80
2017-12-24T22:27:59.884Z,6.80
2017-12-24T22:30:27.401Z,6.80
2017-12-24T22:32:54.934Z,6.80
2017-12-24T22:35:22.442Z,6.80
2017-12-24T22:37:49.968Z,6.80
2017-12-24T22:40:17.471Z,6.80
2017-12-24T22:42:44.997Z,6.80
2017-12-24T22:45:12.527Z,6.70
2017-12-24T22:47:40.032Z,6.70
2017-12-24T22:50:07.564Z,6.70
2017-12-24T22:52:35.080Z,6.70
2017-12-24T22:55:02.604Z,6.70
2017-12-24T22:57:30.114Z,6.70
2017-12-24T22:59:58.407Z,6.70
2017-12-24T23:02:25.913Z,6.70
2017-12-24T23:04:53.436Z,6.70
2017-12-24T23:07:20.948Z,6.60
2017-12-24T23:09:48.471Z,6.70
2017-12-24T23:12:15.979Z,6.70
2017-12-24T23:14:43.483Z,6.60
2017-12-24T23:17:11.007Z,6.60
2017-12-24T23:19:39.279Z,6.60
2017-12-24T23:22:07.563Z,6.50
2017-12-24T23:24:35.840Z,6.50
2017-12-24T23:27:04.143Z,6.50
2017-12-24T23:29:31.644Z,6.50
2017-12-24T23:31:59.166Z,6.50
2017-12-24T23:34:26.676Z,6.40
2017-12-24T23:36:54.204Z,6.40
2017-12-24T23:39:21.708Z,6.40
2017-12-24T23:41:49.979Z,6.40
2017-12-24T23:44:17.502Z,6.40
2017-12-24T23:46:45.011Z,6.40
2017-12-24T23:49:12.550Z,6.40
2017-12-24T23:51:40.058Z,6.40
2017-12-24T23:54:07.584Z,6.40
2017-12-24T23:56:35.087Z,6.40
2017-12-24T23:59:02.919Z,6.50
